sensor_id;sensor_type;location;lat;lon;timestamp;pressure;altitude;pressure_sealevel;temperature;humidity
46718;BME280;32448;44.960;-0.698;2024-03-02T00:00:21;100235.84;;;8.67;100.00
46718;BME280;32448;44.960;-0.698;2024-03-02T00:02:49;100225.38;;;8.64;100.00
46718;BME280;32448;44.960;-0.698;2024-03-02T00:05:20;100226.25;;;8.65;100.00
46718;BME280;32448;44.960;-0.698;2024-03-02T00:07:53;100207.94;;;8.60;100.00
46718;BME280;32448;44.960;-0.698;2024-03-02T00:10:28;100222.81;;;8.67;100.00
46718;BME280;32448;44.960;-0.698;2024-03-02T00:12:58;100188.78;;;8.57;100.00
46718;BME280;32448;44.960;-0.698;2024-03-02T00:15:47;100224.56;;;8.68;100.00
46718;BME280;32448;44.960;-0.698;2024-03-02T00:18:20;100212.22;;;8.57;100.00
46718;BME280;32448;44.960;-0.698;2024-03-02T00:20:55;100201.81;;;8.57;100.00
46718;BME280;32448;44.960;-0.698;2024-03-02T00:23:24;100207.00;;;8.55;100.00
46718;BME280;32448;44.960;-0.698;2024-03-02T00:25:54;100186.94;;;8.50;100.00
46718;BME280;32448;44.960;-0.698;2024-03-02T00:28:26;100210.56;;;8.62;100.00
46718;BME280;32448;44.960;-0.698;2024-03-02T00:31:07;100207.91;;;8.57;100.00
46718;BME280;32448;44.960;-0.698;2024-03-02T00:33:37;100210.53;;;8.59;100.00
46718;BME280;32448;44.960;-0.698;2024-03-02T00:36:07;100181.56;;;8.40;100.00
46718;BME280;32448;44.960;-0.698;2024-03-02T00:38:44;100189.56;;;8.51;100.00
46718;BME280;32448;44.960;-0.698;2024-03-02T00:41:27;100190.44;;;8.50;100.00
46718;BME280;32448;44.960;-0.698;2024-03-02T00:44:06;100186.81;;;8.42;100.00
46718;BME280;32448;44.960;-0.698;2024-03-02T00:46:38;100148.28;;;8.23;100.00
46718;BME280;32448;44.960;-0.698;2024-03-02T00:49:37;100178.25;;;8.51;100.00
46718;BME280;32448;44.960;-0.698;2024-03-02T00:52:07;100176.38;;;8.42;100.00
46718;BME280;32448;44.960;-0.698;2024-03-02T00:54:34;100164.00;;;8.30;100.00
46718;BME280;32448;44.960;-0.698;2024-03-02T00:57:01;100142.09;;;8.18;100.00
46718;BME280;32448;44.960;-0.698;2024-03-02T00:59:29;100176.25;;;8.33;100.00
46718;BME280;32448;44.960;-0.698;2024-03-02T01:01:58;100164.88;;;8.28;100.00
46718;BME280;32448;44.960;-0.698;2024-03-02T01:04:25;100169.28;;;8.32;100.00
46718;BME280;32448;44.960;-0.698;2024-03-02T01:06:51;100162.22;;;8.26;100.00
46718;BME280;32448;44.960;-0.698;2024-03-02T01:09:19;100152.72;;;8.28;100.00
46718;BME280;32448;44.960;-0.698;2024-03-02T01:11:45;100144.72;;;8.16;100.00
46718;BME280;32448;44.960;-0.698;2024-03-02T01:14:13;100159.56;;;8.23;100.00
46718;BME280;32448;44.960;-0.698;2024-03-02T01:16:39;100152.59;;;8.22;100.00
46718;BME280;32448;44.960;-0.698;2024-03-02T01:19:06;100143.06;;;8.23;100.00
46718;BME280;32448;44.960;-0.698;2024-03-02T01:21:33;100143.00;;;8.18;100.00
46718;BME280;32448;44.960;-0.698;2024-03-02T01:24:00;100135.94;;;8.11;100.00
46718;BME280;32448;44.960;-0.698;2024-03-02T01:26:27;100138.59;;;8.14;100.00
46718;BME280;32448;44.960;-0.698;2024-03-02T01:28:54;100108.03;;;8.02;100.00
46718;BME280;32448;44.960;-0.698;2024-03-02T01:31:21;100099.31;;;7.99;100.00
46718;BME280;32448;44.960;-0.698;2024-03-02T01:33:48;100108.16;;;8.10;100.00
46718;BME280;32448;44.960;-0.698;2024-03-02T01:36:14;100117.84;;;8.17;100.00
46718;BME280;32448;44.960;-0.698;2024-03-02T01:38:41;100111.66;;;8.12;100.00
46718;BME280;32448;44.960;-0.698;2024-03-02T01:41:08;100121.16;;;8.10;100.00
46718;BME280;32448;44.960;-0.698;2024-03-02T01:43:35;100114.28;;;8.12;100.00
46718;BME280;32448;44.960;-0.698;2024-03-02T01:46:06;100116.78;;;8.06;100.00
46718;BME280;32448;44.960;-0.698;2024-03-02T01:48:33;100086.38;;;8.03;100.00
46718;BME280;32448;44.960;-0.698;2024-03-02T01:51:00;100107.44;;;8.20;100.00
46718;BME280;32448;44.960;-0.698;2024-03-02T01:53:28;100095.13;;;8.09;100.00
46718;BME280;32448;44.960;-0.698;2024-03-02T01:55:55;100094.25;;;8.08;100.00
46718;BME280;32448;44.960;-0.698;2024-03-02T01:58:22;100092.47;;;8.07;100.00
46718;BME280;32448;44.960;-0.698;2024-03-02T02:00:49;100061.09;;;7.96;100.00
46718;BME280;32448;44.960;-0.698;2024-03-02T02:03:17;100064.69;;;8.03;100.00
46718;BME280;32448;44.960;-0.698;2024-03-02T02:05:44;100069.94;;;8.08;100.00
46718;BME280;32448;44.960;-0.698;2024-03-02T02:08:11;100071.72;;;8.10;100.00
46718;BME280;32448;44.960;-0.698;2024-03-02T02:10:37;100062.28;;;8.18;100.00
46718;BME280;32448;44.960;-0.698;2024-03-02T02:13:04;100057.91;;;8.14;100.00
46718;BME280;32448;44.960;-0.698;2024-03-02T02:15:31;100054.41;;;8.12;100.00
46718;BME280;32448;44.960;-0.698;2024-03-02T02:17:59;100044.84;;;8.11;100.00
46718;BME280;32448;44.960;-0.698;2024-03-02T02:20:26;99995.09;;;7.90;100.00
46718;BME280;32448;44.960;-0.698;2024-03-02T02:23:00;100038.00;;;8.19;100.00
46718;BME280;32448;44.960;-0.698;2024-03-02T02:25:28;100040.59;;;8.18;100.00
46718;BME280;32448;44.960;-0.698;2024-03-02T02:27:56;100020.69;;;8.21;100.00
46718;BME280;32448;44.960;-0.698;2024-03-02T02:30:31;99999.81;;;8.18;100.00
46718;BME280;32448;44.960;-0.698;2024-03-02T02:32:59;99999.91;;;8.23;100.00
46718;BME280;32448;44.960;-0.698;2024-03-02T02:35:26;99993.88;;;8.25;100.00
46718;BME280;32448;44.960;-0.698;2024-03-02T02:37:55;100001.88;;;8.37;100.00
46718;BME280;32448;44.960;-0.698;2024-03-02T02:40:23;99981.75;;;8.30;100.00
46718;BME280;32448;44.960;-0.698;2024-03-02T02:42:50;99997.63;;;8.46;100.00
46718;BME280;32448;44.960;-0.698;2024-03-02T02:45:20;99989.81;;;8.44;100.00
46718;BME280;32448;44.960;-0.698;2024-03-02T02:47:47;99975.84;;;8.40;100.00
46718;BME280;32448;44.960;-0.698;2024-03-02T02:50:14;99948.91;;;8.35;100.00
46718;BME280;32448;44.960;-0.698;2024-03-02T02:52:41;99976.91;;;8.55;100.00
46718;BME280;32448;44.960;-0.698;2024-03-02T02:55:10;99965.56;;;8.51;100.00
46718;BME280;32448;44.960;-0.698;2024-03-02T02:57:39;99942.00;;;8.39;100.00
46718;BME280;32448;44.960;-0.698;2024-03-02T03:00:12;99948.22;;;8.52;100.00
46718;BME280;32448;44.960;-0.698;2024-03-02T03:02:48;99911.47;;;8.30;100.00
46718;BME280;32448;44.960;-0.698;2024-03-02T03:05:18;99934.31;;;8.51;100.00
46718;BME280;32448;44.960;-0.698;2024-03-02T03:07:45;99930.81;;;8.48;100.00
46718;BME280;32448;44.960;-0.698;2024-03-02T03:10:12;99908.25;;;8.48;100.00
46718;BME280;32448;44.960;-0.698;2024-03-02T03:12:41;99911.69;;;8.44;100.00
46718;BME280;32448;44.960;-0.698;2024-03-02T03:15:10;99913.50;;;8.53;100.00
46718;BME280;32448;44.960;-0.698;2024-03-02T03:17:38;99868.22;;;8.37;100.00
46718;BME280;32448;44.960;-0.698;2024-03-02T03:20:05;99892.72;;;8.56;100.00
46718;BME280;32448;44.960;-0.698;2024-03-02T03:22:37;99883.13;;;8.53;100.00
46718;BME280;32448;44.960;-0.698;2024-03-02T03:25:04;99894.59;;;8.69;100.00
46718;BME280;32448;44.960;-0.698;2024-03-02T03:27:32;99883.22;;;8.62;100.00
46718;BME280;32448;44.960;-0.698;2024-03-02T03:29:59;99880.59;;;8.59;100.00
46718;BME280;32448;44.960;-0.698;2024-03-02T03:32:26;99884.94;;;8.62;100.00
46718;BME280;32448;44.960;-0.698;2024-03-02T03:34:52;99848.41;;;8.54;100.00
46718;BME280;32448;44.960;-0.698;2024-03-02T03:37:19;99846.66;;;8.50;100.00
46718;BME280;32448;44.960;-0.698;2024-03-02T03:39:46;99858.09;;;8.67;100.00
46718;BME280;32448;44.960;-0.698;2024-03-02T03:42:13;99866.03;;;8.78;100.00
46718;BME280;32448;44.960;-0.698;2024-03-02T03:44:40;99857.28;;;8.73;100.00
46718;BME280;32448;44.960;-0.698;2024-03-02T03:47:08;99837.22;;;8.64;100.00
46718;BME280;32448;44.960;-0.698;2024-03-02T03:49:35;99849.47;;;8.74;100.00
46718;BME280;32448;44.960;-0.698;2024-03-02T03:52:02;99843.44;;;8.77;100.00
46718;BME280;32448;44.960;-0.698;2024-03-02T03:54:29;99827.78;;;8.75;100.00
46718;BME280;32448;44.960;-0.698;2024-03-02T03:56:56;99825.16;;;8.74;100.00
46718;BME280;32448;44.960;-0.698;2024-03-02T03:59:23;99827.88;;;8.83;100.00
46718;BME280;32448;44.960;-0.698;2024-03-02T04:01:50;99829.59;;;8.84;100.00
46718;BME280;32448;44.960;-0.698;2024-03-02T04:04:17;99845.22;;;8.84;100.00
46718;BME280;32448;44.960;-0.698;2024-03-02T04:06:44;99836.53;;;8.82;100.00
46718;BME280;32448;44.960;-0.698;2024-03-02T04:09:11;99831.34;;;8.87;100.00
46718;BME280;32448;44.960;-0.698;2024-03-02T04:11:38;99841.75;;;8.84;100.00
46718;BME280;32448;44.960;-0.698;2024-03-02T04:14:04;99820.03;;;8.80;100.00
46718;BME280;32448;44.960;-0.698;2024-03-02T04:16:32;99809.63;;;8.83;100.00
46718;BME280;32448;44.960;-0.698;2024-03-02T04:19:00;99798.31;;;8.84;100.00
46718;BME280;32448;44.960;-0.698;2024-03-02T04:21:26;99809.63;;;8.83;100.00
46718;BME280;32448;44.960;-0.698;2024-03-02T04:23:53;99816.56;;;8.81;100.00
46718;BME280;32448;44.960;-0.698;2024-03-02T04:26:24;99800.91;;;8.80;100.00
46718;BME280;32448;44.960;-0.698;2024-03-02T04:28:52;99801.81;;;8.85;100.00
46718;BME280;32448;44.960;-0.698;2024-03-02T04:31:20;99797.41;;;8.77;100.00
46718;BME280;32448;44.960;-0.698;2024-03-02T04:33:47;99793.88;;;8.71;100.00
46718;BME280;32448;44.960;-0.698;2024-03-02T04:36:14;99808.66;;;8.75;100.00
46718;BME280;32448;44.960;-0.698;2024-03-02T04:38:41;99808.72;;;8.78;100.00
46718;BME280;32448;44.960;-0.698;2024-03-02T04:41:08;99790.44;;;8.75;100.00
46718;BME280;32448;44.960;-0.698;2024-03-02T04:43:34;99787.72;;;8.63;100.00
46718;BME280;32448;44.960;-0.698;2024-03-02T04:46:02;99788.53;;;8.56;100.00
46718;BME280;32448;44.960;-0.698;2024-03-02T04:48:29;99786.00;;;8.65;100.00
46718;BME280;32448;44.960;-0.698;2024-03-02T04:50:56;99799.03;;;8.66;100.00
46718;BME280;32448;44.960;-0.698;2024-03-02T04:53:23;99794.69;;;8.65;100.00
46718;BME280;32448;44.960;-0.698;2024-03-02T04:55:50;99794.59;;;8.55;100.00
46718;BME280;32448;44.960;-0.698;2024-03-02T04:58:22;99825.13;;;8.69;100.00
46718;BME280;32448;44.960;-0.698;2024-03-02T05:00:49;99830.28;;;8.65;100.00
46718;BME280;32448;44.960;-0.698;2024-03-02T05:03:16;99818.09;;;8.62;100.00
46718;BME280;32448;44.960;-0.698;2024-03-02T05:05:43;99820.72;;;8.64;100.00
46718;BME280;32448;44.960;-0.698;2024-03-02T05:08:10;99807.69;;;8.62;100.00
46718;BME280;32448;44.960;-0.698;2024-03-02T05:10:38;99818.13;;;8.65;100.00
46718;BME280;32448;44.960;-0.698;2024-03-02T05:13:05;99825.91;;;8.59;100.00
46718;BME280;32448;44.960;-0.698;2024-03-02T05:15:32;99838.06;;;8.62;100.00
46718;BME280;32448;44.960;-0.698;2024-03-02T05:17:59;99838.94;;;8.62;100.00
46718;BME280;32448;44.960;-0.698;2024-03-02T05:20:27;99829.34;;;8.55;100.00
46718;BME280;32448;44.960;-0.698;2024-03-02T05:22:53;99826.78;;;8.60;100.00
46718;BME280;32448;44.960;-0.698;2024-03-02T05:25:20;99803.22;;;8.48;100.00
46718;BME280;32448;44.960;-0.698;2024-03-02T05:27:47;99831.94;;;8.55;100.00
46718;BME280;32448;44.960;-0.698;2024-03-02T05:30:14;99824.09;;;8.54;100.00
46718;BME280;32448;44.960;-0.698;2024-03-02T05:32:41;99835.44;;;8.59;100.00
46718;BME280;32448;44.960;-0.698;2024-03-02T05:35:08;99830.22;;;8.56;100.00
46718;BME280;32448;44.960;-0.698;2024-03-02T05:37:37;99830.22;;;8.56;100.00
46718;BME280;32448;44.960;-0.698;2024-03-02T05:40:04;99823.19;;;8.49;100.00
46718;BME280;32448;44.960;-0.698;2024-03-02T05:42:32;99824.09;;;8.54;100.00
46718;BME280;32448;44.960;-0.698;2024-03-02T05:44:59;99798.91;;;8.50;100.00
46718;BME280;32448;44.960;-0.698;2024-03-02T05:47:26;99794.56;;;8.50;100.00
46718;BME280;32448;44.960;-0.698;2024-03-02T05:49:54;99782.34;;;8.43;100.00
46718;BME280;32448;44.960;-0.698;2024-03-02T05:52:21;99772.66;;;8.31;100.00
46718;BME280;32448;44.960;-0.698;2024-03-02T05:54:48;99791.06;;;8.48;100.00
46718;BME280;32448;44.960;-0.698;2024-03-02T05:57:16;99764.09;;;8.43;100.00
46718;BME280;32448;44.960;-0.698;2024-03-02T05:59:44;99777.16;;;8.46;100.00
46718;BME280;32448;44.960;-0.698;2024-03-02T06:02:13;99755.34;;;8.33;100.00
46718;BME280;32448;44.960;-0.698;2024-03-02T06:04:41;99757.97;;;8.36;100.00
46718;BME280;32448;44.960;-0.698;2024-03-02T06:07:07;99754.41;;;8.30;100.00
46718;BME280;32448;44.960;-0.698;2024-03-02T06:09:34;99775.28;;;8.31;100.00
46718;BME280;32448;44.960;-0.698;2024-03-02T06:12:01;99776.16;;;8.32;100.00
46718;BME280;32448;44.960;-0.698;2024-03-02T06:14:28;99766.56;;;8.28;100.00
46718;BME280;32448;44.960;-0.698;2024-03-02T06:16:55;99767.44;;;8.28;100.00
46718;BME280;32448;44.960;-0.698;2024-03-02T06:19:22;99766.53;;;8.26;100.00
46718;BME280;32448;44.960;-0.698;2024-03-02T06:21:51;99751.75;;;8.25;100.00
46718;BME280;32448;44.960;-0.698;2024-03-02T06:24:18;99691.56;;;7.92;100.00
46718;BME280;32448;44.960;-0.698;2024-03-02T06:26:45;99747.44;;;8.26;100.00
46718;BME280;32448;44.960;-0.698;2024-03-02T06:29:12;99742.16;;;8.20;100.00
46718;BME280;32448;44.960;-0.698;2024-03-02T06:31:40;99740.47;;;8.23;100.00
46718;BME280;32448;44.960;-0.698;2024-03-02T06:34:07;99732.59;;;8.17;100.00
46718;BME280;32448;44.960;-0.698;2024-03-02T06:36:35;99737.81;;;8.17;100.00
46718;BME280;32448;44.960;-0.698;2024-03-02T06:39:02;99740.41;;;8.17;100.00
46718;BME280;32448;44.960;-0.698;2024-03-02T06:41:29;99728.19;;;8.12;100.00
46718;BME280;32448;44.960;-0.698;2024-03-02T06:43:57;99721.22;;;8.09;100.00
46718;BME280;32448;44.960;-0.698;2024-03-02T06:46:27;99688.97;;;7.92;100.00
46718;BME280;32448;44.960;-0.698;2024-03-02T06:48:53;99705.56;;;8.03;100.00
46718;BME280;32448;44.960;-0.698;2024-03-02T06:51:21;99698.66;;;8.05;100.00
46718;BME280;32448;44.960;-0.698;2024-03-02T06:53:48;99698.69;;;8.10;100.00
46718;BME280;32448;44.960;-0.698;2024-03-02T06:56:15;99700.44;;;8.11;100.00
46718;BME280;32448;44.960;-0.698;2024-03-02T06:58:43;99686.53;;;8.09;100.00
46718;BME280;32448;44.960;-0.698;2024-03-02T07:01:10;99675.25;;;8.10;100.00
46718;BME280;32448;44.960;-0.698;2024-03-02T07:03:36;99687.44;;;8.12;100.00
46718;BME280;32448;44.960;-0.698;2024-03-02T07:06:06;99680.47;;;8.10;100.00
46718;BME280;32448;44.960;-0.698;2024-03-02T07:08:33;99678.69;;;8.04;100.00
46718;BME280;32448;44.960;-0.698;2024-03-02T07:11:00;99689.19;;;8.13;100.00
46718;BME280;32448;44.960;-0.698;2024-03-02T07:13:27;99683.06;;;8.10;100.00
46718;BME280;32448;44.960;-0.698;2024-03-02T07:15:54;99686.56;;;8.13;100.00
46718;BME280;32448;44.960;-0.698;2024-03-02T07:18:30;99676.97;;;8.09;100.00
46718;BME280;32448;44.960;-0.698;2024-03-02T07:20:57;99682.25;;;8.18;100.00
46718;BME280;32448;44.960;-0.698;2024-03-02T07:23:28;99675.34;;;8.20;100.00
46718;BME280;32448;44.960;-0.698;2024-03-02T07:25:55;99688.41;;;8.23;100.00
46718;BME280;32448;44.960;-0.698;2024-03-02T07:28:26;99684.06;;;8.22;100.00
46718;BME280;32448;44.960;-0.698;2024-03-02T07:31:04;99678.81;;;8.19;100.00
46718;BME280;32448;44.960;-0.698;2024-03-02T07:33:32;99682.28;;;8.20;100.00
46718;BME280;32448;44.960;-0.698;2024-03-02T07:35:59;99664.06;;;8.17;100.00
46718;BME280;32448;44.960;-0.698;2024-03-02T07:38:31;99676.31;;;8.28;100.00
46718;BME280;32448;44.960;-0.698;2024-03-02T07:40:59;99672.81;;;8.26;100.00
46718;BME280;32448;44.960;-0.698;2024-03-02T07:43:26;99668.47;;;8.27;100.00
46718;BME280;32448;44.960;-0.698;2024-03-02T07:45:53;99660.69;;;8.27;100.00
46718;BME280;32448;44.960;-0.698;2024-03-02T07:48:21;99640.63;;;8.20;100.00
46718;BME280;32448;44.960;-0.698;2024-03-02T07:50:50;99646.78;;;8.26;100.00
46718;BME280;32448;44.960;-0.698;2024-03-02T07:53:17;99655.47;;;8.27;100.00
46718;BME280;32448;44.960;-0.698;2024-03-02T07:55:45;99651.25;;;8.38;100.00
46718;BME280;32448;44.960;-0.698;2024-03-02T07:58:15;99640.72;;;8.29;100.00
46718;BME280;32448;44.960;-0.698;2024-03-02T08:00:42;99643.31;;;8.29;100.00
46718;BME280;32448;44.960;-0.698;2024-03-02T08:03:09;99651.22;;;8.35;100.00
46718;BME280;32448;44.960;-0.698;2024-03-02T08:05:38;99641.69;;;8.35;100.00
46718;BME280;32448;44.960;-0.698;2024-03-02T08:08:05;99639.97;;;8.42;100.00
46718;BME280;32448;44.960;-0.698;2024-03-02T08:10:32;99637.41;;;8.45;100.00
46718;BME280;32448;44.960;-0.698;2024-03-02T08:13:00;99628.75;;;8.48;100.00
46718;BME280;32448;44.960;-0.698;2024-03-02T08:15:27;99615.69;;;8.43;100.00
46718;BME280;32448;44.960;-0.698;2024-03-02T08:17:54;99630.50;;;8.50;100.00
46718;BME280;32448;44.960;-0.698;2024-03-02T08:20:23;99623.56;;;8.49;100.00
46718;BME280;32448;44.960;-0.698;2024-03-02T08:22:50;99614.88;;;8.52;100.00
46718;BME280;32448;44.960;-0.698;2024-03-02T08:25:18;99607.91;;;8.51;100.00
46718;BME280;32448;44.960;-0.698;2024-03-02T08:27:44;99594.91;;;8.51;100.00
46718;BME280;32448;44.960;-0.698;2024-03-02T08:30:14;99601.00;;;8.53;100.00
46718;BME280;32448;44.960;-0.698;2024-03-02T08:32:41;99604.50;;;8.58;100.00
46718;BME280;32448;44.960;-0.698;2024-03-02T08:35:08;99598.47;;;8.65;100.00
46718;BME280;32448;44.960;-0.698;2024-03-02T08:37:37;99587.19;;;8.61;100.00
46718;BME280;32448;44.960;-0.698;2024-03-02T08:40:06;99575.06;;;8.74;100.00
46718;BME280;32448;44.960;-0.698;2024-03-02T08:42:34;99569.03;;;8.80;100.00
46718;BME280;32448;44.960;-0.698;2024-03-02T08:45:01;99569.91;;;8.86;100.00
46718;BME280;32448;44.960;-0.698;2024-03-02T08:47:28;99569.09;;;8.93;100.00
46718;BME280;32448;44.960;-0.698;2024-03-02T08:49:55;99565.63;;;9.00;100.00
46718;BME280;32448;44.960;-0.698;2024-03-02T08:52:26;99542.16;;;8.93;100.00
46718;BME280;32448;44.960;-0.698;2024-03-02T08:54:53;99547.41;;;9.06;100.00
46718;BME280;32448;44.960;-0.698;2024-03-02T08:57:20;99551.81;;;9.17;100.00
46718;BME280;32448;44.960;-0.698;2024-03-02T08:59:48;99543.13;;;9.28;100.00
46718;BME280;32448;44.960;-0.698;2024-03-02T09:02:15;99537.94;;;9.34;100.00
46718;BME280;32448;44.960;-0.698;2024-03-02T09:04:42;99537.06;;;9.41;100.00
46718;BME280;32448;44.960;-0.698;2024-03-02T09:07:09;99530.13;;;9.48;100.00
46718;BME280;32448;44.960;-0.698;2024-03-02T09:09:36;99519.69;;;9.46;100.00
46718;BME280;32448;44.960;-0.698;2024-03-02T09:12:03;99525.75;;;9.50;100.00
46718;BME280;32448;44.960;-0.698;2024-03-02T09:14:30;99517.97;;;9.47;100.00
46718;BME280;32448;44.960;-0.698;2024-03-02T09:16:57;99525.75;;;9.50;100.00
46718;BME280;32448;44.960;-0.698;2024-03-02T09:19:24;99514.50;;;9.49;100.00
46718;BME280;32448;44.960;-0.698;2024-03-02T09:21:51;99511.88;;;9.66;100.00
46718;BME280;32448;44.960;-0.698;2024-03-02T09:24:18;99505.78;;;9.78;100.00
46718;BME280;32448;44.960;-0.698;2024-03-02T09:26:48;99494.47;;;9.85;100.00
46718;BME280;32448;44.960;-0.698;2024-03-02T09:29:15;99481.44;;;9.91;100.00
46718;BME280;32448;44.960;-0.698;2024-03-02T09:31:42;99470.97;;;9.97;100.00
46718;BME280;32448;44.960;-0.698;2024-03-02T09:34:10;99472.72;;;9.95;100.00
46718;BME280;32448;44.960;-0.698;2024-03-02T09:36:37;99477.06;;;9.96;100.00
46718;BME280;32448;44.960;-0.698;2024-03-02T09:39:04;99457.06;;;10.00;100.00
46718;BME280;32448;44.960;-0.698;2024-03-02T09:41:33;99454.41;;;10.10;100.00
46718;BME280;32448;44.960;-0.698;2024-03-02T09:44:02;99448.34;;;10.24;100.00
46718;BME280;32448;44.960;-0.698;2024-03-02T09:46:29;99438.75;;;10.27;100.00
46718;BME280;32448;44.960;-0.698;2024-03-02T09:48:55;99440.47;;;10.30;100.00
46718;BME280;32448;44.960;-0.698;2024-03-02T09:51:23;99436.09;;;10.29;100.00
46718;BME280;32448;44.960;-0.698;2024-03-02T09:53:50;99430.88;;;10.36;100.00
46718;BME280;32448;44.960;-0.698;2024-03-02T09:56:17;99433.47;;;10.41;100.00
46718;BME280;32448;44.960;-0.698;2024-03-02T09:58:47;99432.53;;;10.54;100.00
46718;BME280;32448;44.960;-0.698;2024-03-02T10:01:14;99419.47;;;10.51;100.00
46718;BME280;32448;44.960;-0.698;2024-03-02T10:03:44;99424.69;;;10.54;100.00
46718;BME280;32448;44.960;-0.698;2024-03-02T10:06:22;99417.75;;;10.51;100.00
46718;BME280;32448;44.960;-0.698;2024-03-02T10:08:50;99414.19;;;10.63;100.00
46718;BME280;32448;44.960;-0.698;2024-03-02T10:11:31;99411.59;;;10.63;100.00
46718;BME280;32448;44.960;-0.698;2024-03-02T10:14:13;99393.28;;;10.63;100.00
46718;BME280;32448;44.960;-0.698;2024-03-02T10:16:41;99375.91;;;10.57;100.00
46718;BME280;32448;44.960;-0.698;2024-03-02T10:19:22;99399.25;;;10.88;100.00
46718;BME280;32448;44.960;-0.698;2024-03-02T10:21:51;99381.75;;;10.94;100.00
46718;BME280;32448;44.960;-0.698;2024-03-02T10:24:22;99376.50;;;11.01;100.00
46718;BME280;32448;44.960;-0.698;2024-03-02T10:26:50;99387.69;;;11.18;100.00
46718;BME280;32448;44.960;-0.698;2024-03-02T10:29:17;99380.69;;;11.23;100.00
46718;BME280;32448;44.960;-0.698;2024-03-02T10:31:46;99371.09;;;11.26;100.00
46718;BME280;32448;44.960;-0.698;2024-03-02T10:34:13;99364.13;;;11.25;100.00
46718;BME280;32448;44.960;-0.698;2024-03-02T10:36:42;99349.31;;;11.23;100.00
46718;BME280;32448;44.960;-0.698;2024-03-02T10:39:09;99357.06;;;11.37;100.00
46718;BME280;32448;44.960;-0.698;2024-03-02T10:41:37;99337.97;;;11.25;100.00
46718;BME280;32448;44.960;-0.698;2024-03-02T10:44:09;99333.53;;;11.32;100.00
46718;BME280;32448;44.960;-0.698;2024-03-02T10:46:37;99324.03;;;11.22;100.00
46718;BME280;32448;44.960;-0.698;2024-03-02T10:49:05;99347.38;;;11.45;100.00
46718;BME280;32448;44.960;-0.698;2024-03-02T10:51:35;99339.63;;;11.36;100.00
46718;BME280;32448;44.960;-0.698;2024-03-02T10:54:05;99332.63;;;11.36;100.00
46718;BME280;32448;44.960;-0.698;2024-03-02T10:56:40;99310.06;;;11.24;100.00
46718;BME280;32448;44.960;-0.698;2024-03-02T10:59:33;99332.59;;;11.39;100.00
46718;BME280;32448;44.960;-0.698;2024-03-02T11:02:02;99291.91;;;11.06;100.00
46718;BME280;32448;44.960;-0.698;2024-03-02T11:04:32;99325.69;;;11.32;100.00
46718;BME280;32448;44.960;-0.698;2024-03-02T11:07:07;99297.03;;;11.20;100.00
46718;BME280;32448;44.960;-0.698;2024-03-02T11:09:40;99321.41;;;11.25;100.00
46718;BME280;32448;44.960;-0.698;2024-03-02T11:14:42;99297.09;;;11.14;100.00
46718;BME280;32448;44.960;-0.698;2024-03-02T11:17:14;99322.22;;;11.27;100.00
46718;BME280;32448;44.960;-0.698;2024-03-02T11:19:45;99328.38;;;11.24;100.00
46718;BME280;32448;44.960;-0.698;2024-03-02T11:22:13;99319.59;;;11.30;100.00
46718;BME280;32448;44.960;-0.698;2024-03-02T11:24:48;99321.28;;;11.37;100.00
46718;BME280;32448;44.960;-0.698;2024-03-02T11:33:08;99317.00;;;11.27;100.00
46718;BME280;32448;44.960;-0.698;2024-03-02T11:35:41;99320.47;;;11.30;100.00
46718;BME280;32448;44.960;-0.698;2024-03-02T11:38:10;99322.31;;;11.19;100.00
46718;BME280;32448;44.960;-0.698;2024-03-02T11:40:39;99306.69;;;11.15;100.00
46718;BME280;32448;44.960;-0.698;2024-03-02T11:43:07;99318.03;;;11.09;100.00
46718;BME280;32448;44.960;-0.698;2024-03-02T11:45:37;99308.53;;;11.04;100.00
46718;BME280;32448;44.960;-0.698;2024-03-02T11:48:13;99311.16;;;10.99;100.00
46718;BME280;32448;44.960;-0.698;2024-03-02T11:53:09;99294.84;;;10.71;100.00
46718;BME280;32448;44.960;-0.698;2024-03-02T11:55:38;99296.53;;;10.77;100.00
46718;BME280;32448;44.960;-0.698;2024-03-02T11:58:09;99316.53;;;10.82;100.00
46718;BME280;32448;44.960;-0.698;2024-03-02T12:00:36;99320.03;;;10.80;100.00
46718;BME280;32448;44.960;-0.698;2024-03-02T12:03:08;99288.84;;;10.55;100.00
46718;BME280;32448;44.960;-0.698;2024-03-02T12:05:36;99369.78;;;10.63;100.00
46718;BME280;32448;44.960;-0.698;2024-03-02T12:08:05;99365.53;;;10.39;100.00
46718;BME280;32448;44.960;-0.698;2024-03-02T12:10:34;99397.03;;;10.01;100.00
46718;BME280;32448;44.960;-0.698;2024-03-02T12:13:05;99359.69;;;9.72;100.00
46718;BME280;32448;44.960;-0.698;2024-03-02T12:15:35;99384.91;;;9.65;100.00
46718;BME280;32448;44.960;-0.698;2024-03-02T12:18:06;99392.78;;;9.47;100.00
46718;BME280;32448;44.960;-0.698;2024-03-02T12:20:37;99422.31;;;9.69;100.00
46718;BME280;32448;44.960;-0.698;2024-03-02T12:23:04;99432.75;;;9.58;100.00
46718;BME280;32448;44.960;-0.698;2024-03-02T12:25:32;99438.84;;;9.60;100.00
46718;BME280;32448;44.960;-0.698;2024-03-02T12:28:02;99434.50;;;9.48;100.00
46718;BME280;32448;44.960;-0.698;2024-03-02T12:30:30;99433.63;;;9.45;100.00
46718;BME280;32448;44.960;-0.698;2024-03-02T12:32:58;99419.72;;;9.37;100.00
46718;BME280;32448;44.960;-0.698;2024-03-02T12:35:25;99412.75;;;9.33;100.00
46718;BME280;32448;44.960;-0.698;2024-03-02T12:37:53;99411.03;;;9.24;100.00
46718;BME280;32448;44.960;-0.698;2024-03-02T12:40:22;99419.72;;;9.23;100.00
46718;BME280;32448;44.960;-0.698;2024-03-02T12:42:50;99406.69;;;9.22;100.00
46718;BME280;32448;44.960;-0.698;2024-03-02T12:45:18;99398.84;;;9.22;100.00
46718;BME280;32448;44.960;-0.698;2024-03-02T12:47:52;99390.16;;;9.21;100.00
46718;BME280;32448;44.960;-0.698;2024-03-02T12:50:20;99408.41;;;9.29;100.00
46718;BME280;32448;44.960;-0.698;2024-03-02T12:52:54;99371.06;;;9.11;100.00
46718;BME280;32448;44.960;-0.698;2024-03-02T12:55:22;99384.94;;;9.20;100.00
46718;BME280;32448;44.960;-0.698;2024-03-02T12:57:51;99377.16;;;9.17;100.00
46718;BME280;32448;44.960;-0.698;2024-03-02T13:00:20;99385.81;;;9.23;100.00
46718;BME280;32448;44.960;-0.698;2024-03-02T13:02:47;99349.31;;;9.06;100.00